Flight Track Log - Related Links

Times and Time Zones

All times are in EDT time to prevent confusion due to time zone crossing. See the VJT748 flight status page for this flight to view local times or setup timezone preferences in your user account.

Time Position Orientation Groundspeed Altitude Reporting Facility
EDT Latitude Longitude Course Direction KTS MPH feet Rate Location/Type
Sat 10:26:46 PM 43.3005 -69.3401 56° Northeast 523 602 43,000  Level FlightAware ADS-B
Sat 10:27:35 PM 43.3625 -69.2128 56° Northeast 529 609 43,000  Level FlightAware ADS-B
Sat 10:28:06 PM 43.4077 -69.1194 56° Northeast 530 610 43,000  Level FlightAware ADS-B
Sat 10:28:22 PM 43.4301 -69.0732 56° Northeast 525 604 43,000  Level FlightAware ADS-B
Sat 10:28:53 PM 43.4682 -68.9942 57° Northeast 520 598 43,000  Level FlightAware ADS-B
Sat 10:29:07 PM 43.4893 -68.9503 56° Northeast 525 604 43,000  Level FlightAware ADS-B
Sat 10:29:40 PM 43.5224 -68.8813 57° Northeast 523 602 43,000  Level FlightAware ADS-B
Sat 10:30:18 PM 43.5783 -68.7647 57° Northeast 526 605 43,000  Level FlightAware ADS-B
Sat 10:30:48 PM 43.6221 -68.6729 57° Northeast 527 606 43,000  Level FlightAware ADS-B
Sat 10:31:18 PM 43.6417 -68.6320 57° Northeast 527 606 43,000  Level FlightAware ADS-B
Sat 10:31:49 PM 43.7051 -68.4984 57° Northeast 528 608 43,000  Level FlightAware ADS-B
Sat 10:32:19 PM 43.7275 -68.4511 57° Northeast 528 608 43,000  Level FlightAware ADS-B
Sat 10:32:52 PM 43.7837 -68.3320 57° Northeast 528 608 43,000  Level FlightAware ADS-B
Sat 10:33:22 PM 43.8277 -68.2385 57° Northeast 531 611 43,000  Level FlightAware ADS-B
Sat 10:34:09 PM 43.8799 -68.1271 57° Northeast 532 612 43,000  Level FlightAware ADS-B
Sat 10:34:40 PM 43.9275 -68.0251 57° Northeast 528 608 43,000  Level FlightAware ADS-B
Sat 10:35:26 PM 43.9942 -67.8816 57° Northeast 528 608 43,000  Level FlightAware ADS-B
Sat 10:35:57 PM 44.0329 -67.7981 57° Northeast 525 604 43,000  Level FlightAware ADS-B
Sat 10:36:40 PM 44.0737 -67.7098 58° Northeast 527 606 43,000  Level FlightAware ADS-B
Sat 10:37:10 PM 44.1296 -67.5883 58° Northeast 524 603 43,000  Level FlightAware ADS-B
Sat 10:37:48 PM 44.1772 -67.4845 58° Northeast 526 605 43,000  Level FlightAware ADS-B
Sat 10:38:27 PM 44.2285 -67.3720 58° Northeast 522 601 43,000  Level FlightAware ADS-B
Sat 10:39:00 PM 44.2684 -67.2845 58° Northeast 525 604 43,000  Level FlightAware ADS-B
Sat 10:39:30 PM 44.3088 -67.1955 58° Northeast 522 601 43,000  Level FlightAware ADS-B
Sat 10:40:06 PM 44.3566 -67.0898 58° Northeast 518 596 43,000  Level FlightAware ADS-B
Sat 10:40:38 PM 44.3974 -66.9991 58° Northeast 521 600 43,000  Level FlightAware ADS-B
Sat 10:41:08 PM 44.4356 -66.9140 58° Northeast 518 596 43,000  Level FlightAware ADS-B
Sat 10:41:48 PM 44.4849 -66.8040 58° Northeast 515 593 43,000  Level FlightAware ADS-B
Sat 10:42:21 PM 44.5240 -66.7164 58° Northeast 515 593 43,000  Level FlightAware ADS-B
Sat 10:43:00 PM 44.5737 -66.6046 58° Northeast 516 594 43,000  Level FlightAware ADS-B
Sat 10:44:24 PM 44.6831 -66.3568 58° Northeast 520 598 43,000  Level FlightAware ADS-B
Sat 10:44:54 PM 44.7199 -66.2731 59° Northeast 520 598 43,000  Level FlightAware ADS-B
Sat 10:45:34 PM 44.7723 -66.1534 58° Northeast 518 596 43,000  Level FlightAware ADS-B
Sat 10:46:05 PM 44.8076 -66.0725 59° Northeast 520 598 43,000  Level FlightAware ADS-B
Sat 10:46:52 PM 44.8682 -65.9331 59° Northeast 517 595 43,000  Level FlightAware ADS-B
Sat 10:47:31 PM 44.9159 -65.8226 59° Northeast 517 595 43,000  Level FlightAware ADS-B
Sat 10:48:21 PM 44.9788 -65.6767 59° Northeast 514 592 43,000  Level FlightAware ADS-B
Sat 10:48:52 PM 45.0168 -65.5880 59° Northeast 518 596 43,000  Level FlightAware ADS-B
Sat 10:49:32 PM 45.0670 -65.4704 59° Northeast 520 598 43,000  Level FlightAware ADS-B
Sat 10:50:09 PM 45.1132 -65.3620 59° Northeast 519 597 43,000  Level FlightAware ADS-B
Sat 10:50:41 PM 45.1490 -65.2778 59° Northeast 516 594 43,000  Level FlightAware ADS-B
Sat 10:51:21 PM 45.1988 -65.1598 59° Northeast 512 589 43,000  Level FlightAware ADS-B
Sat 10:52:00 PM 45.2474 -65.0443 59° Northeast 515 593 43,000  Level FlightAware ADS-B
Sat 10:52:33 PM 45.2826 -64.9605 59° Northeast 512 589 43,000  Level FlightAware ADS-B
Sat 10:53:05 PM 45.3200 -64.8709 59° Northeast 516 594 43,000  Level FlightAware ADS-B
Sat 10:53:37 PM 45.3658 -64.7611 60° Northeast 520 598 43,000  Level FlightAware ADS-B
Sat 10:54:17 PM 45.4059 -64.6644 60° Northeast 516 594 43,000  Level FlightAware ADS-B
Sat 10:55:30 PM 45.4942 -64.4504 60° Northeast 520 598 43,000  Level FlightAware ADS-B
Sat 10:56:28 PM 45.5450 -64.3267 60° Northeast 517 595 43,000  Level FlightAware ADS-B
Sat 10:57:01 PM 45.6063 -64.1766 60° Northeast 519 597 43,000  Level FlightAware ADS-B
Sat 10:57:53 PM 45.6748 -64.0077 60° Northeast 521 600 43,000  Level FlightAware ADS-B
Sat 10:58:32 PM 45.7103 -63.9200 60° Northeast 518 596 43,000  Level FlightAware ADS-B
Sat 10:59:02 PM 45.7567 -63.8048 60° Northeast 522 601 43,000  Level FlightAware ADS-B
Sat 11:00:02 PM 45.8139 -63.6619 60° Northeast 526 605 43,000  Level FlightAware ADS-B
Sat 11:00:59 PM 45.8667 -63.4667 60° Northeast 520 598 43,000  Level Moncton Center
Sat 11:01:59 PM 45.9500 -63.2667 59° Northeast 510 587 43,000  Level Moncton Center
Sat 11:02:59 PM 46.0167 -63.1000 60° Northeast 510 587 43,000 500 Level Moncton Center
Sat 11:03:59 PM 46.1000 -62.9000 59° Northeast 510 587 44,000 500 Climbing Moncton Center
Sat 11:04:59 PM 46.1667 -62.7333 60° Northeast 510 587 44,000 50 Level Moncton Center
Sat 11:05:59 PM 46.2333 -62.5667 60° Northeast 520 598 44,100 250 Climbing Moncton Center
Sat 11:06:59 PM 46.3000 -62.3667 64° Northeast 520 598 44,500 450 Climbing Moncton Center
Sat 11:07:59 PM 46.3667 -62.1833 62° Northeast 520 598 45,000 250 Climbing Moncton Center
Sat 11:08:59 PM 46.4333 -62.0000 62° Northeast 520 598 45,000  Level Moncton Center
Sat 11:09:59 PM 46.5000 -61.8167 62° Northeast 510 587 45,000  Level Moncton Center
Sat 11:10:59 PM 46.5833 -61.6500 54° Northeast 510 587 45,000  Level Moncton Center
Sat 11:11:59 PM 46.6333 -61.4500 70° East 520 598 45,000  Level Moncton Center
Sat 11:12:59 PM 46.7167 -61.2667 56° Northeast 520 598 45,000  Level Moncton Center
Sat 11:13:59 PM 46.7833 -61.0667 64° Northeast 520 598 45,000  Level Moncton Center
Sat 11:14:59 PM 46.8500 -60.8667 64° Northeast 520 598 45,000  Level Moncton Center
Sat 11:15:59 PM 46.9167 -60.7000 60° Northeast 520 598 45,000  Level Moncton Center
Sat 11:16:59 PM 46.9833 -60.5000 64° Northeast 520 598 45,000  Level Moncton Center
Sat 11:17:59 PM 47.0333 -60.3167 68° East 520 598 45,000  Level Moncton Center
Sat 11:18:59 PM 47.1167 -60.1333 56° Northeast 520 598 45,000  Level Moncton Center
Sat 11:19:59 PM 47.1833 -59.9333 64° Northeast 520 598 45,000  Level Moncton Center
Sat 11:20:59 PM 47.2333 -59.7667 66° East 520 598 45,000  Level Moncton Center
Sat 11:21:59 PM 47.3167 -59.5500 60° Northeast 520 598 45,000  Level Moncton Center
Sat 11:22:59 PM 47.3667 -59.3833 66° East 520 598 45,000  Level Moncton Center
Sat 11:23:59 PM 47.4500 -59.1667 60° Northeast 520 598 45,000  Level Moncton Center
Sat 11:24:59 PM 47.5000 -59.0000 66° East 520 598 45,000  Level Moncton Center
Sat 11:25:59 PM 47.5667 -58.8167 62° Northeast 520 598 45,000  Level Moncton Center
Sat 11:26:59 PM 47.6333 -58.6000 65° Northeast 520 598 45,000  Level Moncton Center
Sat 11:27:59 PM 47.7000 -58.4000 64° Northeast 520 598 45,000  Level Moncton Center
Sat 11:28:59 PM 47.7667 -58.2167 62° Northeast 530 610 45,000  Level Moncton Center
Sat 11:29:59 PM 47.8167 -58.0167 70° East 520 598 45,000  Level Moncton Center
Sat 11:30:59 PM 47.9000 -57.8333 56° Northeast 510 587 45,000  Level Moncton Center
Sat 11:31:59 PM 47.9667 -57.6333 63° Northeast 520 598 45,000  Level Moncton Center
Sat 11:32:59 PM 48.0500 -57.4500 56° Northeast 520 598 45,000  Level Moncton Center
Sat 11:33:59 PM 48.1333 -57.2667 56° Northeast 520 598 45,000  Level Moncton Center
Sat 11:34:59 PM 48.2000 -57.1000 59° Northeast 530 610 45,000  Level Moncton Center
Sat 11:35:59 PM 48.3000 -56.9167 51° Northeast 520 598 45,000  Level Moncton Center
Sat 11:36:59 PM 48.3667 -56.7333 61° Northeast 510 587 45,000  Level Moncton Center
Sat 11:37:59 PM 48.4333 -56.5667 59° Northeast 500 575 45,000  Level Moncton Center
Sat 11:38:59 PM 48.5167 -56.3833 55° Northeast 490 564 45,000  Level Moncton Center
Sat 11:39:59 PM 48.5833 -56.2167 59° Northeast 500 575 45,000  Level Moncton Center
Sat 11:40:59 PM 48.6667 -56.0167 58° Northeast 510 587 45,000  Level Moncton Center
Sat 11:41:59 PM 48.7333 -55.8500 59° Northeast 510 587 45,000  Level Moncton Center
Sat 11:42:59 PM 48.8333 -55.6667 50° Northeast 510 587 45,000  Level Moncton Center
Sat 11:43:59 PM 48.9000 -55.5000 59° Northeast 510 587 45,000  Level Moncton Center
Sat 11:44:59 PM 48.9833 -55.3000 58° Northeast 520 598 45,000  Level Moncton Center
Sat 11:45:59 PM 49.0500 -55.1167 61° Northeast 520 598 45,000  Level Moncton Center
Sat 11:46:59 PM 49.1167 -54.9500 59° Northeast 520 598 45,000  Level Moncton Center
Sat 11:47:59 PM 49.2000 -54.7500 57° Northeast 510 587 45,000  Level Moncton Center
Sat 11:48:59 PM 49.2833 -54.5500 57° Northeast 510 587 45,000  Level Moncton Center
Sat 11:49:59 PM 49.3500 -54.3833 58° Northeast 510 587 45,000  Level Moncton Center
Sat 11:50:59 PM 49.4333 -54.1833 57° Northeast 510 587 45,000  Level Moncton Center
Sat 11:51:59 PM 49.5000 -53.9833 63° Northeast 520 598 45,000  Level Moncton Center
Sat 11:52:59 PM 49.5833 -53.7833 57° Northeast 510 587 45,000  Level Moncton Center
Sat 11:53:59 PM 49.6500 -53.6167 58° Northeast 510 587 45,000  Level Moncton Center
Sat 11:54:59 PM 49.7167 -53.4500 58° Northeast 510 587 45,000  Level Moncton Center
Sat 11:55:59 PM 49.8000 -53.2500 57° Northeast 510 587 45,000  Level Moncton Center
Sat 11:56:59 PM 49.8667 -53.0500 63° Northeast 510 587 45,000  Level Moncton Center
Sat 11:57:59 PM 49.9500 -52.8500 57° Northeast 510 587 45,000  Level Moncton Center
Sat 11:58:59 PM 50.0167 -52.6667 60° Northeast 520 598 45,000  Level Moncton Center
Sat 11:59:59 PM 50.0833 -52.4667 62° Northeast 520 598 45,000  Level Moncton Center
Sun 12:00:59 AM 50.1500 -52.2667 62° Northeast 510 587 45,000  Level Moncton Center
Sun 12:01:59 AM 50.2167 -52.1000 58° Northeast 510 587 45,000  Level Moncton Center
Sun 12:02:59 AM 50.3000 -51.8833 59° Northeast 510 587 45,000  Level Moncton Center
Sun 12:03:59 AM 50.3667 -51.7167 58° Northeast 510 587 45,000  Level Moncton Center
Sun 12:04:59 AM 50.4500 -51.5000 59° Northeast 510 587 45,000  Level Moncton Center
Sun 12:05:59 AM 50.5000 -51.3000 68° East 520 598 45,000  Level Moncton Center
Sun 12:06:59 AM 50.5833 -51.1167 54° Northeast 520 598 45,000  Level Moncton Center
Sun 12:07:59 AM 50.6500 -50.9167 62° Northeast 520 598 45,000  Level Moncton Center
Sun 12:08:59 AM 50.7167 -50.7333 60° Northeast 520 598 45,000  Level Moncton Center
Sun 12:09:59 AM 50.7833 -50.5333 62° Northeast 520 598 45,000  Level Moncton Center
Sun 12:10:59 AM 50.8500 -50.3167 64° Northeast 520 598 45,000  Level Moncton Center
Sun 12:11:59 AM 50.9167 -50.1167 62° Northeast 510 587 45,000  Level Moncton Center
Sun 12:12:59 AM 50.9833 -49.9333 60° Northeast 510 587 45,000  Level Moncton Center
Sun 12:13:59 AM 51.0833 -49.7333 51° Northeast 520 598 45,000  Level Moncton Center
Sun 12:14:59 AM 51.1667 -49.5833 48° Northeast 520 598 45,000  Level Moncton Center
Sun 12:16:01 AM 51.2500 -49.3500 60° Northeast 520 598 45,000  Level Gander Center
Sun 12:17:01 AM 51.3333 -49.2000 48° Northeast 520 598 45,000  Level Gander Center
Sun 12:19:00 AM 51.4938 -48.8600 53° Northeast  Level FlightAware Approximate
Sun 12:26:00 AM 52.0761 -47.5866 53° Northeast  Level FlightAware Approximate
Sun 12:27:00 AM 52.1582 -47.4020 54° Northeast  Level FlightAware Approximate
Sun 12:28:00 AM 52.2400 -47.2168 54° Northeast  Level FlightAware Approximate
Sun 12:29:00 AM 52.3215 -47.0308 54° Northeast  Level FlightAware Approximate
Sun 12:30:00 AM 52.4027 -46.8441 54° Northeast  Level FlightAware Approximate
Sun 12:31:00 AM 52.4836 -46.6568 55° Northeast  Level FlightAware Approximate
Sun 12:32:00 AM 52.5642 -46.4688 55° Northeast  Level FlightAware Approximate
Sun 12:33:00 AM 52.6445 -46.2800 55° Northeast  Level FlightAware Approximate
Sun 12:34:00 AM 52.7245 -46.0906 55° Northeast  Level FlightAware Approximate
Sun 12:35:00 AM 52.8042 -45.9005 55° Northeast  Level FlightAware Approximate
Sun 12:36:00 AM 52.8836 -45.7097 55° Northeast  Level FlightAware Approximate
Sun 12:37:00 AM 52.9626 -45.5182 56° Northeast  Level FlightAware Approximate
Sun 12:38:00 AM 53.0414 -45.3260 56° Northeast  Level FlightAware Approximate
Sun 12:39:00 AM 53.1199 -45.1331 56° Northeast  Level FlightAware Approximate
Sun 12:40:00 AM 53.1980 -44.9395 56° Northeast  Level FlightAware Approximate
Sun 12:41:00 AM 53.2759 -44.7451 56° Northeast  Level FlightAware Approximate
Sun 12:42:00 AM 53.3534 -44.5501 56° Northeast  Level FlightAware Approximate
Sun 12:43:00 AM 53.4306 -44.3544 56° Northeast  Level FlightAware Approximate
Sun 12:44:00 AM 53.5075 -44.1579 57° Northeast  Level FlightAware Approximate
Sun 12:45:00 AM 53.5840 -43.9608 57° Northeast  Level FlightAware Approximate
Sun 12:46:00 AM 53.6603 -43.7629 57° Northeast  Level FlightAware Approximate
Sun 12:47:00 AM 53.7362 -43.5643 57° Northeast  Level FlightAware Approximate
Sun 12:48:00 AM 53.8117 -43.3650 57° Northeast  Level FlightAware Approximate
Sun 12:49:00 AM 53.8870 -43.1650 57° Northeast  Level FlightAware Approximate
Sun 12:50:00 AM 53.9619 -42.9642 58° Northeast  Level FlightAware Approximate
Sun 12:51:00 AM 54.0365 -42.7628 58° Northeast  Level FlightAware Approximate
Sun 12:52:00 AM 54.1107 -42.5606 58° Northeast  Level FlightAware Approximate
Sun 12:53:00 AM 54.1846 -42.3577 58° Northeast  Level FlightAware Approximate
Sun 12:54:00 AM 54.2582 -42.1540 58° Northeast  Level FlightAware Approximate
Sun 12:55:00 AM 54.3314 -41.9497 58° Northeast  Level FlightAware Approximate
Sun 12:56:00 AM 54.4042 -41.7446 59° Northeast  Level FlightAware Approximate
Sun 12:57:00 AM 54.4767 -41.5388 59° Northeast  Level FlightAware Approximate
Sun 12:58:00 AM 54.5489 -41.3322 59° Northeast  Level FlightAware Approximate
Sun 12:59:00 AM 54.6207 -41.1250 59° Northeast  Level FlightAware Approximate
Sun 01:00:00 AM 54.6922 -40.9170 59° Northeast  Level FlightAware Approximate
Sun 01:01:00 AM 54.7633 -40.7082 59° Northeast  Level FlightAware Approximate
Sun 01:02:00 AM 54.8340 -40.4987 60° Northeast  Level FlightAware Approximate
Sun 01:03:00 AM 54.9044 -40.2885 60° Northeast  Level FlightAware Approximate
Sun 01:04:00 AM 54.9744 -40.0776 60° Northeast  Level FlightAware Approximate
Sun 01:05:00 AM 55.0356 -39.8588 66° East  Level FlightAware Approximate
Sun 01:06:00 AM 55.0915 -39.6348 66° East  Level FlightAware Approximate
Sun 01:07:00 AM 55.1471 -39.4102 67° East  Level FlightAware Approximate
Sun 01:08:00 AM 55.2023 -39.1850 67° East  Level FlightAware Approximate
Sun 01:09:00 AM 55.2570 -38.9591 67° East  Level FlightAware Approximate
Sun 01:10:00 AM 55.3113 -38.7327 67° East  Level FlightAware Approximate
Sun 01:11:00 AM 55.3652 -38.5056 67° East  Level FlightAware Approximate
Sun 01:12:00 AM 55.4187 -38.2779 67° East  Level FlightAware Approximate
Sun 01:13:00 AM 55.4717 -38.0495 68° East  Level FlightAware Approximate
Sun 01:14:00 AM 55.5243 -37.8206 68° East  Level FlightAware Approximate
Sun 01:15:00 AM 55.5765 -37.5910 68° East  Level FlightAware Approximate
Sun 01:16:00 AM 55.6283 -37.3609 68° East  Level FlightAware Approximate
Sun 01:17:00 AM 55.6796 -37.1301 68° East  Level FlightAware Approximate
Sun 01:18:00 AM 55.7305 -36.8988 69° East  Level FlightAware Approximate
Sun 01:19:00 AM 55.7809 -36.6668 69° East  Level FlightAware Approximate
Sun 01:20:00 AM 55.8310 -36.4342 69° East  Level FlightAware Approximate
Sun 01:21:00 AM 55.8805 -36.2011 69° East  Level FlightAware Approximate
Sun 01:22:00 AM 55.9297 -35.9673 69° East  Level FlightAware Approximate
Sun 01:23:00 AM 55.9784 -35.7330 70° East  Level FlightAware Approximate
Sun 01:24:00 AM 56.0266 -35.4981 70° East  Level FlightAware Approximate
Sun 01:25:00 AM 56.0744 -35.2625 70° East  Level FlightAware Approximate
Sun 01:26:00 AM 56.1218 -35.0264 70° East  Level FlightAware Approximate
Sun 01:27:00 AM 56.1687 -34.7897 70° East  Level FlightAware Approximate
Sun 01:28:00 AM 56.2151 -34.5525 71° East  Level FlightAware Approximate
Sun 01:29:00 AM 56.2611 -34.3147 71° East  Level FlightAware Approximate
Sun 01:30:00 AM 56.3066 -34.0763 71° East  Level FlightAware Approximate
Sun 01:31:00 AM 56.3517 -33.8373 71° East  Level FlightAware Approximate
Sun 01:32:00 AM 56.3963 -33.5978 71° East  Level FlightAware Approximate
Sun 01:33:00 AM 56.4405 -33.3577 72° East  Level FlightAware Approximate
Sun 01:34:00 AM 56.4842 -33.1171 72° East  Level FlightAware Approximate
Sun 01:35:00 AM 56.5274 -32.8759 72° East  Level FlightAware Approximate
Sun 01:36:00 AM 56.5702 -32.6341 72° East  Level FlightAware Approximate
Sun 01:37:00 AM 56.6124 -32.3918 72° East  Level FlightAware Approximate
Sun 01:38:00 AM 56.6543 -32.1490 73° East  Level FlightAware Approximate
Sun 01:39:00 AM 56.6956 -31.9056 73° East  Level FlightAware Approximate
Sun 01:40:00 AM 56.7365 -31.6617 73° East  Level FlightAware Approximate
Sun 01:41:00 AM 56.7769 -31.4173 73° East  Level FlightAware Approximate
Sun 01:42:00 AM 56.8167 -31.1724 73° East  Level FlightAware Approximate
Sun 01:43:00 AM 56.8562 -30.9269 74° East  Level FlightAware Approximate
Sun 01:44:00 AM 56.8951 -30.6809 74° East  Level FlightAware Approximate
Sun 01:45:00 AM 56.9336 -30.4344 74° East  Level FlightAware Approximate
Sun 01:46:00 AM 56.9716 -30.1875 74° East  Level FlightAware Approximate
Sun 01:47:00 AM 57.0086 -29.9397 75° East  Level FlightAware Approximate
Sun 01:48:00 AM 57.0438 -29.6909 75° East  Level FlightAware Approximate
Sun 01:49:00 AM 57.0786 -29.4416 76° East  Level FlightAware Approximate
Sun 01:50:00 AM 57.1128 -29.1918 76° East  Level FlightAware Approximate
Sun 01:51:00 AM 57.1466 -28.9415 76° East  Level FlightAware Approximate
Sun 01:52:00 AM 57.1798 -28.6909 76° East  Level FlightAware Approximate
Sun 01:53:00 AM 57.2126 -28.4397 76° East  Level FlightAware Approximate
Sun 01:54:00 AM 57.2448 -28.1881 77° East  Level FlightAware Approximate
Sun 01:55:00 AM 57.2766 -27.9361 77° East  Level FlightAware Approximate
Sun 01:56:00 AM 57.3078 -27.6836 77° East  Level FlightAware Approximate
Sun 01:57:00 AM 57.3385 -27.4308 77° East  Level FlightAware Approximate
Sun 01:58:00 AM 57.3687 -27.1775 77° East  Level FlightAware Approximate
Sun 01:59:00 AM 57.3984 -26.9238 78° East  Level FlightAware Approximate
Sun 02:00:00 AM 57.4277 -26.6696 78° East  Level FlightAware Approximate
Sun 02:01:00 AM 57.4563 -26.4151 78° East  Level FlightAware Approximate
Sun 02:02:00 AM 57.4845 -26.1602 78° East  Level FlightAware Approximate
Sun 02:03:00 AM 57.5122 -25.9049 78° East  Level FlightAware Approximate
Sun 02:04:00 AM 57.5393 -25.6492 79° East  Level FlightAware Approximate
Sun 02:05:00 AM 57.5659 -25.3931 79° East  Level FlightAware Approximate
Sun 02:06:00 AM 57.5921 -25.1367 79° East  Level FlightAware Approximate
Sun 02:07:00 AM 57.6176 -24.8799 79° East  Level FlightAware Approximate
Sun 02:08:00 AM 57.6427 -24.6227 80° East  Level FlightAware Approximate
Sun 02:09:00 AM 57.6673 -24.3652 80° East  Level FlightAware Approximate
Sun 02:10:00 AM 57.6913 -24.1073 80° East  Level FlightAware Approximate
Sun 02:11:00 AM 57.7148 -23.8491 80° East  Level FlightAware Approximate
Sun 02:12:00 AM 57.7377 -23.5906 80° East  Level FlightAware Approximate
Sun 02:13:00 AM 57.7602 -23.3317 81° East  Level FlightAware Approximate
Sun 02:14:00 AM 57.7821 -23.0726 81° East  Level FlightAware Approximate
Sun 02:15:00 AM 57.8035 -22.8131 81° East  Level FlightAware Approximate
Sun 02:16:00 AM 57.8243 -22.5533 81° East  Level FlightAware Approximate
Sun 02:17:00 AM 57.8447 -22.2932 82° East  Level FlightAware Approximate
Sun 02:18:00 AM 57.8644 -22.0328 82° East  Level FlightAware Approximate
Sun 02:19:00 AM 57.8837 -21.7722 82° East  Level FlightAware Approximate
Sun 02:20:00 AM 57.9024 -21.5112 82° East  Level FlightAware Approximate
Sun 02:21:00 AM 57.9206 -21.2500 82° East  Level FlightAware Approximate
Sun 02:22:00 AM 57.9383 -20.9886 83° East  Level FlightAware Approximate
Sun 02:23:00 AM 57.9554 -20.7268 83° East  Level FlightAware Approximate
Sun 02:24:00 AM 57.9720 -20.4649 83° East  Level FlightAware Approximate
Sun 02:25:00 AM 57.9880 -20.2027 83° East  Level FlightAware Approximate
Sun 02:26:00 AM 57.9931 -19.9413 102° East  Level FlightAware Approximate
Sun 02:27:00 AM 57.9626 -19.6838 103° East  Level FlightAware Approximate
Sun 02:28:00 AM 57.9315 -19.4266 103° East  Level FlightAware Approximate
Sun 02:29:00 AM 57.8999 -19.1700 103° East  Level FlightAware Approximate
Sun 02:30:00 AM 57.8677 -18.9138 103° East  Level FlightAware Approximate
Sun 02:31:00 AM 57.8351 -18.6580 103° East  Level FlightAware Approximate
Sun 02:32:00 AM 57.8020 -18.4028 104° East  Level FlightAware Approximate
Sun 02:33:00 AM 57.7683 -18.1479 104° East  Level FlightAware Approximate
Sun 02:34:00 AM 57.7341 -17.8936 104° East  Level FlightAware Approximate
Sun 02:35:00 AM 57.6995 -17.6398 104° East  Level FlightAware Approximate
Sun 02:36:00 AM 57.6643 -17.3864 104° East  Level FlightAware Approximate
Sun 02:37:00 AM 57.6286 -17.1336 105° East  Level FlightAware Approximate
Sun 02:38:00 AM 57.5933 -16.8807 104° East  Level FlightAware Approximate
Sun 02:39:00 AM 57.5580 -16.6282 105° East  Level FlightAware Approximate
Sun 02:40:00 AM 57.5222 -16.3761 105° East  Level FlightAware Approximate
Sun 02:41:00 AM 57.4859 -16.1245 105° East  Level FlightAware Approximate
Sun 02:42:00 AM 57.4490 -15.8735 105° East  Level FlightAware Approximate
Sun 02:43:00 AM 57.4117 -15.6229 105° East  Level FlightAware Approximate
Sun 02:44:00 AM 57.3739 -15.3729 106° East  Level FlightAware Approximate
Sun 02:45:00 AM 57.3356 -15.1234 106° East  Level FlightAware Approximate
Sun 02:46:00 AM 57.2968 -14.8744 106° East  Level FlightAware Approximate
Sun 02:47:00 AM 57.2575 -14.6259 106° East  Level FlightAware Approximate
Sun 02:48:00 AM 57.2177 -14.3780 106° East  Level FlightAware Approximate
Sun 02:49:00 AM 57.1773 -14.1307 107° East  Level FlightAware Approximate
Sun 02:50:00 AM 57.1356 -13.8843 107° East  Level FlightAware Approximate
Sun 02:51:00 AM 57.0934 -13.6386 107° East  Level FlightAware Approximate
Sun 02:52:00 AM 57.0508 -13.3934 108° East  Level FlightAware Approximate
Sun 02:53:00 AM 57.0077 -13.1487 108° East  Level FlightAware Approximate
Sun 02:54:00 AM 56.9641 -12.9047 108° East  Level FlightAware Approximate
Sun 02:55:00 AM 56.9200 -12.6612 108° East  Level FlightAware Approximate
Sun 02:56:00 AM 56.8755 -12.4183 108° East  Level FlightAware Approximate
Sun 02:57:00 AM 56.8305 -12.1759 109° East  Level FlightAware Approximate
Sun 02:58:00 AM 56.7850 -11.9341 109° East  Level FlightAware Approximate
Sun 02:59:00 AM 56.7390 -11.6930 109° East  Level FlightAware Approximate
Sun 03:00:00 AM 56.6926 -11.4524 109° East  Level FlightAware Approximate
Sun 03:00:14 AM 56.9727 -9.8161 105° East 531 611 45,000  Level FlightAware ADS-B (EGPH / EDI)
Sun 03:00:53 AM 56.9429 -9.6180 106° East 529 609 45,000  Level FlightAware ADS-B (EGPH / EDI)
Sun 03:01:33 AM 56.9168 -9.4460 106° East 530 610 45,000  Level FlightAware ADS-B (EGPH / EDI)
Sun 03:02:09 AM 56.8949 -9.3030 106° East 531 611 45,000  Level FlightAware ADS-B (EGPH / EDI)
Sun 03:02:40 AM 56.8740 -9.1682 106° East 528 608 45,000  Level FlightAware ADS-B (EGPH / EDI)
Sun 03:03:21 AM 56.8466 -8.9929 106° East 527 606 45,000  Level FlightAware ADS-B (EGPH / EDI)
Sun 03:03:52 AM 56.8247 -8.8526 106° East 528 608 45,000  Level FlightAware UK
Sun 03:04:10 AM 56.8127 -8.7779 106° East 530 610 45,000  Level FlightAware ADS-B
Sun 03:04:44 AM 56.7902 -8.6370 106° East 529 609 45,000  Level FlightAware ADS-B (EGPH / EDI)
Sun 03:05:24 AM 56.7624 -8.4645 107° East 530 610 45,000  Level FlightAware ADS-B (EGPH / EDI)
Sun 03:05:29 AM 56.7584 -8.4397 107° East 531 611 45,000  Level FlightAware ADS-B (EGPH / EDI)
Sun 03:06:26 AM 56.7299 -8.2647 107° East 528 608 45,000  Level FlightAware ADS-B (EGPH / EDI)
Sun 03:07:04 AM 56.7033 -8.1034 107° East 527 606 45,000  Level FlightAware ADS-B (EGPH / EDI)
Sun 03:07:45 AM 56.6665 -7.8815 107° East 529 609 45,000  Level FlightAware ADS-B (EGPH / EDI)
Sun 03:08:22 AM 56.6365 -7.7035 106° East 527 606 45,000  Level FlightAware ADS-B
Sun 03:08:52 AM 56.6149 -7.5758 106° East 528 608 45,000  Level FlightAware UK
Sun 03:09:03 AM 56.6074 -7.5321 106° East 527 606 45,000  Level FlightAware ADS-B
Sun 03:09:35 AM 56.5842 -7.3970 107° East 529 609 45,000  Level FlightAware ADS-B (EGPH / EDI)
Sun 03:10:12 AM 56.5567 -7.2378 107° East 525 604 45,000  Level FlightAware ADS-B
Sun 03:10:33 AM 56.5420 -7.1533 107° East 522 601 45,000  Level FlightAware ADS-B
Sun 03:11:21 AM 56.5121 -6.9822 108° East 527 606 45,000  Level FlightAware ADS-B (EGPH / EDI)
Sun 03:11:52 AM 56.4795 -6.8223 108° East 528 608 45,000  Level FlightAware UK
Sun 03:12:01 AM 56.4766 -6.8095 114° Southeast 528 608 45,000  Level FlightAware ADS-B (EGPH / EDI)
Sun 03:12:41 AM 56.4338 -6.6327 114° Southeast 527 606 45,000  Level FlightAware ADS-B (EGPH / EDI)
Sun 03:13:13 AM 56.4029 -6.5068 114° Southeast 527 606 45,000  Level FlightAware ADS-B (EGPH / EDI)
Sun 03:13:45 AM 56.3734 -6.3871 114° Southeast 526 605 45,000  Level FlightAware ADS-B
Sun 03:14:22 AM 56.3324 -6.2218 114° Southeast 524 603 45,000  Level FlightAware UK
Sun 03:14:40 AM 56.3155 -6.1546 113° Southeast 523 602 45,000  Level FlightAware ADS-B
Sun 03:15:16 AM 56.2812 -6.0182 114° Southeast 527 606 45,000  Level FlightAware ADS-B
Sun 03:15:49 AM 56.2468 -5.8819 114° Southeast 529 609 45,000  Level FlightAware ADS-B (EGPH / EDI)
Sun 03:16:22 AM 56.2127 -5.7482 114° Southeast 525 604 45,000  Level FlightAware ADS-B
Sun 03:16:53 AM 56.1807 -5.6229 115° Southeast 527 606 45,000  Level FlightAware ADS-B
Sun 03:17:23 AM 56.1502 -5.5046 115° Southeast 524 603 45,000  Level FlightAware ADS-B
Sun 03:18:01 AM 56.1152 -5.3693 115° Southeast 528 608 45,000  Level FlightAware ADS-B (EGPH / EDI)
Sun 03:18:41 AM 56.0761 -5.2194 115° Southeast 526 605 45,000  Level FlightAware ADS-B (EGPH / EDI)
Sun 03:19:18 AM 56.0324 -5.0524 115° Southeast 527 606 45,000  Level FlightAware ADS-B
Sun 03:19:50 AM 56.0089 -4.9634 115° Southeast 532 612 45,000  Level FlightAware ADS-B
Sun 03:20:30 AM 55.9649 -4.7974 115° Southeast 527 606 45,000  Level FlightAware ADS-B (EGPH / EDI)
Sun 03:21:05 AM 55.9228 -4.6401 116° Southeast 527 606 45,000  Level FlightAware ADS-B
Sun 03:21:40 AM 55.8890 -4.5142 116° Southeast 535 616 45,000  Level FlightAware ADS-B (EGPH / EDI)
Sun 03:22:11 AM 55.8489 -4.3822 120° Southeast 530 610 45,000  Level FlightAware ADS-B
Sun 03:22:41 AM 55.8129 -4.2738 121° Southeast 529 609 45,000  Level FlightAware ADS-B
Sun 03:22:44 AM 55.8059 -4.2529 120° Southeast 525 604 45,000  Level FlightAware ADS-B
Sun 03:23:04 AM 55.7818 -4.1810 120° Southeast 522 601 45,000  Level FlightAware ADS-B
Sun 03:23:10 AM 55.7744 -4.1588 120° Southeast 522 601 45,000  Level FlightAware ADS-B (EGNR / CEG)
Sun 03:23:47 AM 55.7270 -4.0182 121° Southeast 527 606 45,000  Level FlightAware ADS-B (EGPH / EDI)
Sun 03:24:17 AM 55.6905 -3.9105 121° Southeast 530 610 45,000  Level FlightAware ADS-B
Sun 03:24:50 AM 55.6526 -3.7990 121° Southeast 533 613 45,000  Level FlightAware ADS-B (EGPH / EDI)
Sun 03:25:20 AM 55.6119 -3.6800 121° Southeast 534 615 45,000  Level FlightAware ADS-B
Sun 03:25:52 AM 55.5698 -3.5574 121° Southeast 534 615 45,000  Level FlightAware ADS-B
Sun 03:26:26 AM 55.5261 -3.4308 121° Southeast 527 606 45,000  Level FlightAware ADS-B
Sun 03:26:58 AM 55.5092 -3.3807 116° Southeast 533 613 45,000  Level FlightAware ADS-B
Sun 03:27:27 AM 55.4573 -3.1967 115° Southeast 534 615 45,000  Level FlightAware ADS-B
Sun 03:27:58 AM 55.4612 -3.2109 116° Southeast 535 616 45,000 -88 Level FlightAware ADS-B
Sun 03:28:35 AM 55.3846 -2.9309 116° Southeast 530 610 44,900  Descending FlightAware UK
Sun 03:28:38 AM 55.4055 -3.0066 116° Southeast 531 611 45,000 167 Climbing FlightAware ADS-B (EGNT / NCL)
Sun 03:29:11 AM 55.3485 -2.7987 116° Southeast 529 609 45,000  Level FlightAware ADS-B (EGPH / EDI)
Sun 03:29:41 AM 55.3144 -2.6757 116° Southeast 526 605 45,000  Level FlightAware UK
Sun 03:29:48 AM 55.3075 -2.6505 116° Southeast 527 606 45,000  Level FlightAware ADS-B
Sun 03:30:01 AM 55.2943 -2.6030 115° Southeast 525 604 45,000  Level FlightAware ADS-B (EGXU / HRT)
Sun 03:30:16 AM 55.2783 -2.5454 116° Southeast 530 610 45,000  Level FlightAware ADS-B (EGXU / HRT)
Sun 03:30:31 AM 55.2616 -2.4854 116° Southeast 530 610 45,000  Level FlightAware ADS-B (EGPH / EDI)
Sun 03:30:50 AM 55.2411 -2.4123 115° Southeast 529 609 45,000  Level FlightAware ADS-B
Sun 03:31:21 AM 55.2173 -2.3272 116° Southeast 535 616 45,000  Level FlightAware ADS-B (EGNT / NCL)
Sun 03:32:21 AM 55.1437 -2.0667 116° Southeast 527 606 45,000  Level FlightAware ADS-B (EGPH / EDI)
Sun 03:32:44 AM 55.1259 -2.0043 117° Southeast 529 609 45,000  Level FlightAware ADS-B (EGNT / NCL)
Sun 03:33:27 AM 55.0725 -1.8173 116° Southeast 529 609 45,000  Level FlightAware ADS-B (EGNR / CEG)
Sun 03:33:45 AM 55.0515 -1.7447 117° Southeast 531 611 45,000  Level FlightAware ADS-B (EGXU / HRT)
Sun 03:34:17 AM 55.0183 -1.6188 113° Southeast 528 608 45,000  Level FlightAware ADS-B (EGPH / EDI)
Sun 03:34:49 AM 54.9867 -1.4932 114° Southeast 527 606 45,000  Level FlightAware ADS-B
Sun 03:35:29 AM 54.9511 -1.3546 114° Southeast 528 608 45,000  Level FlightAware ADS-B (EGXU / HRT)
Sun 03:35:36 AM 54.9405 -1.3136 113° Southeast 526 605 45,000  Level FlightAware ADS-B (EGNR / CEG)
Sun 03:36:08 AM 54.9088 -1.1905 114° Southeast 526 605 45,000  Level FlightAware ADS-B (EGXU / HRT)
Sun 03:36:27 AM 54.8912 -1.1229 113° Southeast 521 600 45,000  Level FlightAware ADS-B
Sun 03:36:57 AM 54.8601 -1.0031 114° Southeast 519 597 45,000  Level FlightAware ADS-B
Sun 03:37:28 AM 54.8323 -0.8966 114° Southeast 523 602 45,000  Level FlightAware ADS-B (EGXU / HRT)
Sun 03:38:00 AM 54.7978 -0.7653 114° Southeast 524 603 45,000  Level FlightAware ADS-B
Sun 03:38:08 AM 54.7896 -0.7339 114° Southeast 524 603 45,000 -111 Level FlightAware ADS-B
Sun 03:38:54 AM 54.7422 -0.5554 114° Southeast 528 608 44,900  Descending FlightAware UK
Sun 03:39:12 AM 54.7249 -0.4900 115° Southeast 526 605 45,000 250 Climbing FlightAware ADS-B (EGNT / NCL)
Sun 03:39:18 AM 54.7183 -0.4649 115° Southeast 523 602 45,000  Level FlightAware ADS-B (EGNT / NCL)
Sun 03:39:22 AM 54.7156 -0.4550 114° Southeast 521 600 45,000  Level FlightAware ADS-B (EGNR / CEG)
Sun 03:39:53 AM 54.6835 -0.3347 114° Southeast 521 600 45,000  Level FlightAware ADS-B (EGPH / EDI)
Sun 03:40:11 AM 54.6680 -0.2771 115° Southeast 525 604 45,000  Level FlightAware ADS-B
Sun 03:40:43 AM 54.6298 -0.1524 122° Southeast 525 604 45,000  Level FlightAware ADS-B (EGNT / NCL)
Sun 03:41:14 AM 54.5878 -0.0374 122° Southeast 525 604 45,000  Level FlightAware ADS-B (EGXU / HRT)
Sun 03:41:44 AM 54.5494 0.0667 122° Southeast 524 603 45,000  Level FlightAware ADS-B (EGXU / HRT)
Sun 03:41:51 AM 54.5393 0.0941 122° Southeast 520 598 45,000  Level FlightAware ADS-B
Sun 03:41:54 AM 54.5393 0.0941 122° Southeast 524 603 45,000  Level FlightAware ADS-B (EGLF / FAB)
Sun 03:42:24 AM 54.4979 0.2057 123° Southeast 521 600 45,000  Level FlightAware ADS-B
Sun 03:42:35 AM 54.4824 0.2475 122° Southeast 516 594 45,000  Level FlightAware ADS-B
Sun 03:43:06 AM 54.4424 0.3548 123° Southeast 519 597 45,000  Level FlightAware ADS-B (EGXU / HRT)
Sun 03:43:21 AM 54.4235 0.4053 122° Southeast 517 595 45,000  Level FlightAware ADS-B
Sun 03:43:58 AM 54.3756 0.5326 123° Southeast 532 612 45,000  Level FlightAware ADS-B
Sun 03:44:33 AM 54.3287 0.6570 123° Southeast 532 612 45,000  Level FlightAware ADS-B
Sun 03:44:42 AM 54.3167 0.6884 123° Southeast 527 606 45,000  Level FlightAware ADS-B
Sun 03:45:10 AM 54.2800 0.7852 123° Southeast 521 600 45,000  Level FlightAware ADS-B
Sun 03:45:19 AM 54.2813 0.7817 123° Southeast 523 602 45,000  Level FlightAware ADS-B (EGXU / HRT)
Sun 03:45:50 AM 54.2459 0.8745 123° Southeast 525 604 45,000  Level FlightAware ADS-B (EGLF / FAB)
Sun 03:46:22 AM 54.2071 0.9757 123° Southeast 532 612 45,000  Level FlightAware ADS-B (EGLF / FAB)
Sun 03:46:52 AM 54.2047 0.9820 123° Southeast 533 613 45,000  Level FlightAware ADS-B (EGNY)
Sun 03:47:43 AM 54.0738 1.3204 123° Southeast 534 615 45,000  Level FlightAware UK
Sun 03:48:02 AM 54.0836 1.2957 124° Southeast 528 608 45,000  Level FlightAware ADS-B (EGSR)
Sun 03:48:43 AM 54.0001 1.5099 124° Southeast 530 610 45,000  Level FlightAware ADS-B
Sun 03:48:48 AM 54.0028 1.5030 124° Southeast 528 608 45,000  Level FlightAware ADS-B (EGSR)
Sun 03:49:20 AM 53.9439 1.6525 124° Southeast 530 610 45,000  Level FlightAware UK
Sun 03:49:22 AM 53.9599 1.6122 124° Southeast 529 609 45,000  Level FlightAware ADS-B (EGXU / HRT)
Sun 03:49:59 AM 53.9282 1.6926 124° Southeast 528 608 45,000  Level FlightAware ADS-B (EGLF / FAB)
Sun 03:50:38 AM 53.8396 1.9159 124° Southeast 529 609 45,000  Level FlightAware ADS-B (EGLF / FAB)
Sun 03:50:42 AM 53.8350 1.9275 123° Southeast 525 604 45,000  Level FlightAware ADS-B (EGSR)
Sun 03:51:20 AM 53.8396 1.9159 124° Southeast 529 609 45,000  Level FlightAware ADS-B (EGLF / FAB)
Sun 03:51:50 AM 53.8396 1.9159 124° Southeast 530 610 45,000  Level FlightAware ADS-B (EGLF / FAB)
Sun 03:52:20 AM 53.6981 2.2685 124° Southeast 532 612 45,000  Level FlightAware UK
Sun 03:52:56 AM 53.6482 2.3918 124° Southeast 528 608 45,000  Level FlightAware UK
Sun 03:53:33 AM 53.6781 2.3181 125° Southeast 530 610 45,000  Level FlightAware ADS-B (EGLF / FAB)
Sun 03:54:12 AM 53.6781 2.3181 125° Southeast 529 609 45,000  Level FlightAware ADS-B (EGLF / FAB)
Sun 03:54:51 AM 53.4897 2.7789 125° Southeast 530 610 45,000  Level FlightAware UK
Sun 03:55:13 AM 53.5414 2.6538 125° Southeast 533 613 45,000  Level FlightAware ADS-B (EGLC / LCY)
Sun 03:55:51 AM 53.4062 2.9814 125° Southeast 534 615 45,000  Level FlightAware UK
Sun 03:56:16 AM 53.4082 2.9758 125° Southeast 532 612 45,000  Level FlightAware ADS-B (EGLF / FAB)
Sun 03:56:51 AM 53.3204 3.1836 125° Southeast 534 615 45,000  Level FlightAware UK
Sun 03:56:57 AM 53.3346 3.1503 125° Southeast 535 616 45,000  Level FlightAware ADS-B (EGLF / FAB)
Sun 03:57:31 AM 53.3346 3.1503 125° Southeast 533 613 45,000 -875 Level FlightAware ADS-B (EGLF / FAB)
Sun 03:58:33 AM 53.1757 3.5269 125° Southeast 538 619 43,600 -1,370 Descending FlightAware UK
Sun 03:59:03 AM 53.1331 3.6294 125° Southeast 536 617 42,900 -1,500 Descending FlightAware UK
Sun 03:59:17 AM 53.2024 3.4633 124° Southeast 535 616 42,500 -1,417 Descending FlightAware ADS-B (EGSR)
Sun 04:00:15 AM 53.0318 3.8764 124° Southeast 550 633 41,200 -1,340 Descending FlightAware UK
Sun 04:00:51 AM 52.9801 4.0030 124° Southeast 548 631 40,400 -1,750 Descending FlightAware UK
Sun 04:01:03 AM 53.0115 3.9256 124° Southeast 548 631 39,800 -1,957 Descending FlightAware ADS-B
Sun 04:01:37 AM 52.9643 4.0428 124° Southeast 555 639 38,900 -2,132 Descending FlightAware ADS-B
Sun 04:02:19 AM 52.8620 4.2945 124° Southeast 556 640 37,100 -2,609 Descending FlightAware ADS-B
Sun 04:02:23 AM 52.8678 4.2806 126° Southeast 558 642 36,900 -2,824 Descending FlightAware ADS-B
Sun 04:02:53 AM 52.8370 4.3536 126° Southeast 553 636 35,500 -2,289 Descending FlightAware ADS-B
Sun 04:03:39 AM 52.7344 4.5833 126° Southeast 554 638 34,000 -2,083 Descending FlightAware UK
Sun 04:04:05 AM 52.7405 4.5692 127° Southeast 555 639 33,000 -2,419 Descending FlightAware ADS-B
Sun 04:04:41 AM 52.6878 4.6863 127° Southeast 556 640 31,500 -2,571 Descending FlightAware ADS-B
Sun 04:05:15 AM 52.5879 4.9091 127° Southeast 544 626 30,000 -2,318 Descending FlightAware UK
Sun 04:05:25 AM 52.5760 4.9331 127° Southeast 540 621 29,800 -2,233 Descending FlightAware ADS-B
Sun 04:05:58 AM 52.5256 5.0439 127° Southeast 535 616 28,400 -2,400 Descending FlightAware ADS-B
Sun 04:06:20 AM 52.4925 5.1161 127° Southeast 530 610 27,600 -1,698 Descending FlightAware ADS-B
Sun 04:06:51 AM 52.4456 5.2181 127° Southeast 520 598 26,900 -1,742 Descending FlightAware UK
Sun 04:06:51 AM 52.4776 5.1486 127° Southeast 515 593 26,700 -1,200 Descending FlightAware ADS-B
Sun 04:07:21 AM 52.4048 5.3068 127° Southeast 511 588 26,300 -800 Descending FlightAware ADS-B
Sun 04:07:51 AM 52.3571 5.4000 127° Southeast 508 585 25,900 -486 Descending FlightAware UK
Sun 04:07:58 AM 52.3524 5.4202 127° Southeast 509 586 26,000 -973 Climbing FlightAware ADS-B
Sun 04:08:28 AM 52.3578 5.4086 127° Southeast 507 583 25,300 -2,031 Descending FlightAware ADS-B
Sun 04:09:03 AM 52.2546 5.6177 127° Southeast 983 1131 23,800 -2,615 Descending FlightAware UK
Sun 04:09:07 AM 52.2553 5.6288 127° Southeast 488 562 23,600 -2,769 Descending FlightAware ADS-B
Sun 04:09:42 AM 52.2186 5.7073 127° Southeast 486 559 22,000 -2,438 Descending FlightAware ADS-B
Sun 04:10:11 AM 52.1694 5.8119 127° Southeast 478 550 21,000 -2,308 Descending FlightAware ADS-B
Sun 04:10:47 AM 52.1248 5.9066 128° Southeast 469 540 19,500 -2,400 Descending FlightAware ADS-B
Sun 04:11:21 AM 52.0746 6.0127 127° Southeast 454 522 18,200 -2,133 Descending FlightAware ADS-B
Sun 04:11:32 AM 52.0616 6.0399 127° Southeast 452 520 17,900 -2,195 Descending FlightAware ADS-B
Sun 04:12:02 AM 52.0233 6.1205 128° Southeast 443 510 16,700 -2,262 Descending FlightAware ADS-B
Sun 04:12:33 AM 51.9874 6.1958 128° Southeast 434 499 15,600 -2,226 Descending FlightAware ADS-B
Sun 04:13:04 AM 51.9475 6.2763 133° Southeast 430 495 14,400 -2,449 Descending FlightAware ADS-B
Sun 04:13:22 AM 51.9207 6.3182 136° Southeast 422 486 13,600 -2,588 Descending FlightAware ADS-B
Sun 04:13:55 AM 51.8738 6.3887 137° Southeast 409 471 12,200 -2,063 Descending FlightAware ADS-B
Sun 04:14:26 AM 51.8320 6.4510 137° Southeast 376 433 11,400 -1,574 Descending FlightAware ADS-B
Sun 04:14:56 AM 51.7985 6.5009 137° Southeast 362 417 10,600 -1,279 Descending FlightAware ADS-B
Sun 04:15:27 AM 51.7564 6.5637 137° Southeast 338 389 10,100 -750 Descending FlightAware ADS-B
Sun 04:15:44 AM 51.7396 6.5887 137° Southeast 339 390 10,000 -143 Descending FlightAware ADS-B
Sun 04:16:09 AM 51.7181 6.6206 137° Southeast 331 381 10,000  Level FlightAware ADS-B
Sun 04:16:39 AM 51.6791 6.6783 138° Southeast 296 341 10,000 -577 Level FlightAware ADS-B
Sun 04:17:01 AM 51.6582 6.7093 137° Southeast 297 342 9,500 -1,800 Descending FlightAware ADS-B
Sun 04:17:19 AM 51.6391 6.7376 137° Southeast 302 348 8,800 -1,950 Descending FlightAware ADS-B
Sun 04:17:41 AM 51.6145 6.7740 137° Southeast 302 348 8,200 -1,636 Descending FlightAware ADS-B
Sun 04:18:03 AM 51.5928 6.8061 137° Southeast 302 348 7,600 -1,857 Descending FlightAware ADS-B
Sun 04:18:23 AM 51.5707 6.8387 137° Southeast 304 350 6,900 -1,950 Descending FlightAware ADS-B
Sun 04:18:43 AM 51.5501 6.8690 137° Southeast 300 345 6,300 -1,571 Descending FlightAware ADS-B
Sun 04:19:05 AM 51.5285 6.9008 138° Southeast 292 336 5,800 -1,171 Descending FlightAware ADS-B
Sun 04:19:24 AM 51.5144 6.9213 138° Southeast 285 328 5,500 -1,105 Descending FlightAware ADS-B
Sun 04:19:43 AM 51.4906 6.9563 138° Southeast 277 319 5,100 -1,000 Descending FlightAware ADS-B
Sun 04:20:06 AM 51.4696 6.9871 138° Southeast 268 308 4,800 -931 Descending FlightAware ADS-B
Sun 04:20:41 AM 51.4354 7.0226 170° South 247 284 4,200 -1,116 Descending FlightAware ADS-B
Sun 04:20:49 AM 51.4574 7.0047 181° South 238 274 4,000 -900 Descending FlightAware ADS-B
Sun 04:21:01 AM 51.4144 7.0202 211° Southwest 215 247 3,900 -973 Descending FlightAware ADS-B
Sun 04:21:26 AM 51.3976 7.0011 181° South 238 274 3,400 -1,200 Descending FlightAware ADS-B
Sun 04:23:00 AM 51.2895 6.7668 234° Southwest  Level Estimated
Sun 04:24:00 AM 51.2895 6.7668 232° Southwest  Level Estimated
Sun 04:25:00 AM 51.2895 6.7668 North  Level Estimated
Sun 04:26:00 AM 51.2895 6.7668 North  Level Estimated
Sun 04:27:00 AM 51.2895 6.7668 North  Level Estimated
Sun 04:28:00 AM 51.2895 6.7668 North  Level Estimated
Sun 04:29:00 AM 51.2895 6.7668 North  Level Estimated
Sun 04:30:00 AM 51.2895 6.7668 North  Level Estimated
Sun 04:31:00 AM 51.2895 6.7668 North  Level Estimated
Sun 04:32:00 AM 51.2895 6.7668 North  Level Estimated
Sun 04:33:00 AM 51.2895 6.7668 North  Level Estimated
Sun 04:34:00 AM 51.2895 6.7668 North  Level Estimated
Sun 04:35:00 AM 51.2895 6.7668 North  Level Estimated
Sun 04:36:00 AM 51.2895 6.7668 North  Level Estimated
Sun 04:37:00 AM 51.2895 6.7668 North  Level Estimated
Sun 04:38:00 AM 51.2895 6.7668 North  Level Estimated
Sun 04:39:00 AM 51.2895 6.7668 North  Level Estimated
Sun 04:40:00 AM 51.2895 6.7668 North  Level Estimated

Login

Don't have an account? Register now (free) for customized features, flight alerts, and more!